createdAt,value
2022-12-08T00:00:48.962Z,12.69999981
2022-12-08T00:01:49.942Z,14.30000019
2022-12-08T00:02:51.084Z,13.19999981
2022-12-08T00:03:51.537Z,12.89999962
2022-12-08T00:04:52.188Z,12.19999981
2022-12-08T00:05:53.056Z,12.60000038
2022-12-08T00:06:54.719Z,11.89999962
2022-12-08T00:07:55.344Z,13
2022-12-08T00:08:55.857Z,13.69999981
2022-12-08T00:09:56.406Z,13.5
2022-12-08T00:10:56.948Z,13.19999981
2022-12-08T00:11:58.182Z,12.10000038
2022-12-08T00:12:58.911Z,13
2022-12-08T00:14:00.370Z,12.89999962
2022-12-08T00:15:01.274Z,13.10000038
2022-12-08T00:16:01.507Z,12
2022-12-08T00:17:02.189Z,12.5
2022-12-08T00:18:02.649Z,12.5
2022-12-08T00:19:03.205Z,13.10000038
2022-12-08T00:20:03.751Z,12.10000038
2022-12-08T00:21:04.770Z,12
2022-12-08T00:22:36.482Z,13.10000038
2022-12-08T00:23:37.029Z,11.80000019
2022-12-08T00:24:37.635Z,12.5
2022-12-08T00:25:38.192Z,13.69999981
2022-12-08T00:26:38.742Z,12.80000019
2022-12-08T00:27:40.161Z,12.69999981
2022-12-08T00:28:40.672Z,12.89999962
2022-12-08T00:29:41.216Z,13.60000038
2022-12-08T00:30:41.783Z,13
2022-12-08T00:31:42.431Z,12.80000019
2022-12-08T00:32:43.446Z,12.10000038
2022-12-08T00:33:43.971Z,12.30000019
2022-12-08T00:34:44.690Z,12.10000038
2022-12-08T00:35:45.142Z,13.10000038
2022-12-08T00:36:45.740Z,13
2022-12-08T00:37:46.356Z,11.69999981
2022-12-08T00:38:46.825Z,12.89999962
2022-12-08T00:39:47.372Z,14.5
2022-12-08T00:40:47.921Z,12.69999981
2022-12-08T00:41:48.517Z,12.10000038
2022-12-08T00:42:49.934Z,13.30000019
2022-12-08T00:43:50.490Z,13.69999981
2022-12-08T00:44:51.056Z,13.19999981
2022-12-08T00:45:51.709Z,12.30000019
2022-12-08T00:46:52.499Z,13.19999981
2022-12-08T00:47:53.032Z,12.10000038
2022-12-08T00:48:53.610Z,12.39999962
2022-12-08T00:49:54.197Z,12.39999962
2022-12-08T00:50:54.724Z,12.5
2022-12-08T00:51:55.324Z,12.89999962
2022-12-08T00:52:56.548Z,12.30000019
2022-12-08T00:53:57.126Z,12.39999962
2022-12-08T00:54:57.704Z,12.39999962
2022-12-08T00:55:58.250Z,12.5
2022-12-08T00:56:58.871Z,12.60000038
2022-12-08T00:58:00.136Z,12
2022-12-08T00:59:00.661Z,12.69999981
2022-12-08T01:00:01.668Z,12.60000038
2022-12-08T01:01:01.922Z,13.69999981
2022-12-08T01:02:03.141Z,12.60000038
2022-12-08T01:03:04.365Z,12.30000019
2022-12-08T01:04:35.972Z,12.30000019
2022-12-08T01:05:36.632Z,12.80000019
2022-12-08T01:06:37.204Z,12.19999981
2022-12-08T01:07:37.843Z,11.89999962
2022-12-08T01:08:39.154Z,13.10000038
2022-12-08T01:09:39.678Z,12.80000019
2022-12-08T01:10:40.314Z,13.60000038
2022-12-08T01:11:40.887Z,12.39999962
2022-12-08T01:12:42.126Z,13.30000019
2022-12-08T01:13:42.745Z,11.80000019
2022-12-08T01:14:43.282Z,12
2022-12-08T01:15:43.780Z,12.80000019
2022-12-08T01:16:44.451Z,12.5
2022-12-08T01:17:44.923Z,12.80000019
2022-12-08T01:18:45.518Z,12.89999962
2022-12-08T01:19:46.041Z,12.19999981
2022-12-08T01:20:46.623Z,12.5
2022-12-08T01:21:47.241Z,12.60000038
2022-12-08T01:22:48.623Z,11.60000038
2022-12-08T01:23:49.271Z,12.60000038
2022-12-08T01:24:49.807Z,13.30000019
2022-12-08T01:25:50.372Z,12.5
2022-12-08T01:26:50.954Z,12.30000019
2022-12-08T01:27:52.139Z,13.19999981
2022-12-08T01:28:53.065Z,12.69999981
2022-12-08T01:29:53.609Z,12.5
2022-12-08T01:30:54.999Z,12.39999962
2022-12-08T01:31:55.545Z,11.69999981
2022-12-08T01:32:56.662Z,14.5
2022-12-08T01:33:57.409Z,10.89999962
2022-12-08T01:34:57.978Z,12.19999981
2022-12-08T01:35:58.584Z,12.80000019
2022-12-08T01:36:59.179Z,12.69999981
2022-12-08T01:37:59.808Z,12.30000019
2022-12-08T01:39:00.508Z,12
2022-12-08T01:40:01.531Z,13.30000019
2022-12-08T01:41:01.676Z,12.80000019
2022-12-08T01:42:02.277Z,12.69999981
2022-12-08T01:43:03.879Z,12.30000019
2022-12-08T01:44:35.676Z,13
2022-12-08T01:45:35.977Z,12.19999981
2022-12-08T01:46:36.730Z,12.69999981
2022-12-08T01:47:37.214Z,12.69999981
2022-12-08T01:48:37.760Z,12.5
2022-12-08T01:49:38.466Z,12.10000038
2022-12-08T01:50:38.965Z,12.19999981
2022-12-08T01:51:39.579Z,12.80000019
2022-12-08T01:52:40.903Z,13
2022-12-08T01:53:41.439Z,13.10000038
2022-12-08T01:54:42.978Z,12.60000038
2022-12-08T01:55:43.547Z,12.5
2022-12-08T01:56:44.175Z,12.5
2022-12-08T01:57:44.839Z,14
2022-12-08T01:58:45.427Z,13.10000038
2022-12-08T01:59:47.041Z,11.89999962
2022-12-08T02:00:47.528Z,12.19999981
2022-12-08T02:01:48.290Z,11.69999981
2022-12-08T02:02:49.724Z,12.60000038
2022-12-08T02:03:50.383Z,12.5
2022-12-08T02:04:50.996Z,12.39999962
2022-12-08T02:05:51.490Z,11.19999981
2022-12-08T02:06:52.562Z,12.89999962
2022-12-08T02:07:53.197Z,12.80000019
2022-12-08T02:08:53.788Z,13
2022-12-08T02:09:54.436Z,11.30000019
2022-12-08T02:10:54.965Z,12.19999981
2022-12-08T02:11:55.599Z,12.89999962
2022-12-08T02:12:57.181Z,13.5
2022-12-08T02:13:57.797Z,12.19999981
2022-12-08T02:15:03.406Z,12.10000038
2022-12-08T02:15:59.044Z,12.89999962
2022-12-08T02:16:59.589Z,12.39999962
2022-12-08T02:18:00.207Z,13
2022-12-08T02:19:29.283Z,12.5
2022-12-08T02:20:01.842Z,13.30000019
2022-12-08T02:21:01.996Z,13.19999981
2022-12-08T02:22:02.605Z,12.69999981
2022-12-08T02:23:34.229Z,12.5
2022-12-08T02:24:35.425Z,12.5
2022-12-08T02:25:36.010Z,13.39999962
2022-12-08T02:26:36.513Z,13
2022-12-08T02:27:37.077Z,12.69999981
2022-12-08T02:28:38.496Z,12.80000019
2022-12-08T02:29:39.657Z,12.69999981
2022-12-08T02:30:40.296Z,12.39999962
2022-12-08T02:31:40.826Z,13
2022-12-08T02:32:41.373Z,12.39999962
2022-12-08T02:33:42.942Z,13.5
2022-12-08T02:34:43.570Z,11.89999962
2022-12-08T02:35:44.248Z,11.80000019
2022-12-08T02:36:44.840Z,12.69999981
2022-12-08T02:37:45.467Z,12.39999962
2022-12-08T02:38:46.021Z,12.10000038
2022-12-08T02:39:46.693Z,12.39999962
2022-12-08T02:40:47.414Z,12.39999962
2022-12-08T02:41:48.065Z,13.10000038
2022-12-08T02:42:48.726Z,13.19999981
2022-12-08T02:43:49.935Z,12.5
2022-12-08T02:44:50.455Z,12.5
2022-12-08T02:45:51.332Z,13
2022-12-08T02:46:51.626Z,13.80000019
2022-12-08T02:47:52.218Z,11.69999981
2022-12-08T02:48:53.004Z,13.10000038
2022-12-08T02:49:53.534Z,11.89999962
2022-12-08T02:50:54.131Z,12.10000038
2022-12-08T02:51:54.689Z,12.60000038
2022-12-08T02:52:55.215Z,13
2022-12-08T02:53:56.630Z,12.10000038
2022-12-08T02:54:57.186Z,13.5
2022-12-08T02:55:57.715Z,12.5
2022-12-08T02:56:58.292Z,11.89999962
2022-12-08T02:57:58.809Z,12.60000038
2022-12-08T02:58:59.399Z,12.60000038
2022-12-08T03:00:01.024Z,13.80000019
2022-12-08T03:01:01.549Z,12.60000038
2022-12-08T03:02:02.276Z,12.69999981
2022-12-08T03:03:34.140Z,12.19999981
2022-12-08T03:04:34.713Z,12.19999981
2022-12-08T03:05:36.183Z,12.30000019
2022-12-08T03:06:36.894Z,12.30000019
2022-12-08T03:07:37.381Z,12.5
2022-12-08T03:08:37.918Z,13.39999962
2022-12-08T03:09:38.596Z,13.89999962
2022-12-08T03:10:39.931Z,13
2022-12-08T03:11:40.468Z,13
2022-12-08T03:12:41.030Z,13.60000038
2022-12-08T03:13:42.384Z,13.19999981
2022-12-08T03:14:42.965Z,12.39999962
2022-12-08T03:15:43.575Z,13.19999981
2022-12-08T03:16:44.150Z,12.30000019
2022-12-08T03:17:44.639Z,11.80000019
2022-12-08T03:18:45.186Z,12.30000019
2022-12-08T03:19:45.817Z,12.5
2022-12-08T03:20:46.449Z,12.39999962
2022-12-08T03:21:47.174Z,11.5
2022-12-08T03:22:47.661Z,11.60000038
2022-12-08T03:23:48.880Z,12.5
2022-12-08T03:24:49.588Z,12.39999962
2022-12-08T03:25:50.300Z,12.80000019
2022-12-08T03:26:51.022Z,11.80000019
2022-12-08T03:27:51.610Z,11.89999962
2022-12-08T03:28:53.139Z,13.19999981
2022-12-08T03:29:53.744Z,11.10000038
2022-12-08T03:30:54.549Z,12
2022-12-08T03:31:54.963Z,11.80000019
2022-12-08T03:32:55.502Z,13.19999981
2022-12-08T03:33:56.959Z,13.10000038
2022-12-08T03:34:57.557Z,12.10000038
2022-12-08T03:35:58.195Z,13.30000019
2022-12-08T03:36:58.826Z,11.80000019
2022-12-08T03:37:59.351Z,12.10000038
2022-12-08T03:38:59.997Z,11.5
2022-12-08T03:40:00.536Z,12.30000019
2022-12-08T03:41:02.364Z,12.30000019
2022-12-08T03:42:33.467Z,12.80000019
2022-12-08T03:43:34.673Z,13.30000019
2022-12-08T03:44:35.339Z,12.69999981
2022-12-08T03:45:36.267Z,14
2022-12-08T03:46:37.068Z,12.10000038
2022-12-08T03:47:37.708Z,12.39999962
2022-12-08T03:48:38.270Z,13.69999981
2022-12-08T03:49:38.857Z,12.19999981
2022-12-08T03:50:39.493Z,13
2022-12-08T03:51:40.107Z,12
2022-12-08T03:52:40.740Z,11.39999962
2022-12-08T03:53:42.210Z,12.19999981
2022-12-08T03:54:42.825Z,11.10000038
2022-12-08T03:55:43.456Z,11.60000038
2022-12-08T03:56:44.037Z,11.10000038
2022-12-08T03:57:44.678Z,11.19999981
2022-12-08T03:58:46.115Z,11.60000038
2022-12-08T03:59:46.717Z,11
2022-12-08T04:00:47.389Z,10.89999962
2022-12-08T04:01:48.115Z,11.19999981
2022-12-08T04:02:48.767Z,10
2022-12-08T04:03:50.129Z,10
2022-12-08T04:04:50.727Z,9.5
2022-12-08T04:05:51.456Z,9.399999619
2022-12-08T04:06:52.400Z,9.100000381
2022-12-08T04:07:53.188Z,7.599999905
2022-12-08T04:08:54.468Z,6.699999809
2022-12-08T04:09:55.122Z,7.300000191
2022-12-08T04:10:55.692Z,7.900000095
2022-12-08T04:11:56.420Z,8.300000191
2022-12-08T04:12:57.186Z,7.300000191
2022-12-08T04:13:58.616Z,9.199999809
2022-12-08T04:14:59.273Z,8.100000381
2022-12-08T04:15:59.901Z,8.199999809
2022-12-08T04:17:00.616Z,7.800000191
2022-12-08T04:18:01.311Z,7.599999905
2022-12-08T04:19:32.503Z,7.300000191
2022-12-08T04:20:33.102Z,6.400000095
2022-12-08T04:21:34.605Z,7.599999905
2022-12-08T04:22:35.254Z,7.900000095
2022-12-08T04:23:36.697Z,7.300000191
2022-12-08T04:24:37.414Z,7.300000191
2022-12-08T04:25:37.998Z,6.699999809
2022-12-08T04:26:38.584Z,7.300000191
2022-12-08T04:27:39.134Z,7
2022-12-08T04:28:39.995Z,7.699999809
2022-12-08T04:29:41.457Z,7.400000095
2022-12-08T04:30:42.112Z,6.400000095
2022-12-08T04:31:42.819Z,7.199999809
2022-12-08T04:32:47.330Z,7.699999809
2022-12-08T04:33:44.712Z,7.400000095
2022-12-08T04:34:45.366Z,7.800000191
2022-12-08T04:35:46.070Z,9.100000381
2022-12-08T04:36:46.747Z,7.900000095
2022-12-08T04:37:47.336Z,7.800000191
2022-12-08T04:38:48.040Z,7
2022-12-08T04:39:48.701Z,7.400000095
2022-12-08T04:40:49.421Z,8
2022-12-08T04:41:50.120Z,7.599999905
2022-12-08T04:42:50.782Z,6.900000095
2022-12-08T04:43:52.541Z,6.699999809
2022-12-08T04:44:53.342Z,6.300000191
2022-12-08T04:45:54.016Z,6.400000095
2022-12-08T04:46:54.866Z,6.099999905
2022-12-08T04:47:55.535Z,6.300000191
2022-12-08T04:48:56.168Z,5.900000095
2022-12-08T04:49:56.722Z,6.599999905
2022-12-08T04:50:57.323Z,6.199999809
2022-12-08T04:51:58.026Z,6.800000191
2022-12-08T04:52:58.743Z,4.900000095
2022-12-08T04:54:00.313Z,6.199999809
2022-12-08T04:55:00.849Z,6.099999905
2022-12-08T04:56:32.039Z,6
2022-12-08T04:57:33.476Z,5.900000095
2022-12-08T04:58:34.134Z,6
2022-12-08T04:59:35.677Z,6
2022-12-08T05:00:36.218Z,5.5
2022-12-08T05:01:36.979Z,5.300000191
2022-12-08T05:02:37.605Z,5
2022-12-08T05:03:38.114Z,5.099999905
2022-12-08T05:04:39.642Z,5.400000095
2022-12-08T05:05:40.121Z,5.900000095
2022-12-08T05:06:40.747Z,5.099999905
2022-12-08T05:07:41.465Z,5.099999905
2022-12-08T05:08:42.004Z,5
2022-12-08T05:09:42.703Z,5.099999905
2022-12-08T05:10:43.417Z,4.699999809
2022-12-08T05:11:48.549Z,5.300000191
2022-12-08T05:12:44.558Z,4.699999809
2022-12-08T05:13:45.195Z,4.599999905
2022-12-08T05:14:46.494Z,4.800000191
2022-12-08T05:15:47.151Z,5.5
2022-12-08T05:16:47.865Z,4.800000191
2022-12-08T05:17:48.537Z,4.800000191
2022-12-08T05:18:49.332Z,5.099999905
2022-12-08T05:19:50.133Z,5.599999905
2022-12-08T05:20:50.855Z,4.900000095
2022-12-08T05:21:51.491Z,5.099999905
2022-12-08T05:22:52.473Z,4.900000095
2022-12-08T05:23:54.148Z,5
2022-12-08T05:24:55.497Z,5.599999905
2022-12-08T05:25:56.140Z,4.599999905
2022-12-08T05:26:56.778Z,4.900000095
2022-12-08T05:28:17.740Z,4.800000191
2022-12-08T05:28:58.000Z,4.900000095
2022-12-08T05:29:59.475Z,4.599999905
2022-12-08T05:31:00.095Z,5.400000095
2022-12-08T05:32:01.220Z,4.699999809
2022-12-08T05:33:32.366Z,4.900000095
2022-12-08T05:34:33.972Z,4.800000191
2022-12-08T05:35:34.657Z,4.599999905
2022-12-08T05:36:35.297Z,5.400000095
2022-12-08T05:37:35.864Z,4.800000191
2022-12-08T05:38:36.469Z,4.800000191
2022-12-08T05:39:37.057Z,4.900000095
2022-12-08T05:40:37.663Z,4.400000095
2022-12-08T05:41:38.187Z,5.300000191
2022-12-08T05:42:38.831Z,4.900000095
2022-12-08T05:43:40.132Z,5.099999905
2022-12-08T05:44:41.609Z,5
2022-12-08T05:45:42.243Z,5.400000095
2022-12-08T05:46:42.787Z,4.699999809
2022-12-08T05:47:43.415Z,4.5
2022-12-08T05:48:44.024Z,4.900000095
2022-12-08T05:49:44.690Z,4.699999809
2022-12-08T05:50:45.284Z,5
2022-12-08T05:51:45.873Z,4.699999809
2022-12-08T05:52:46.490Z,4.900000095
2022-12-08T05:53:47.155Z,4.5
2022-12-08T05:54:48.546Z,4.800000191
2022-12-08T05:55:49.336Z,4.5
2022-12-08T05:56:49.909Z,4.599999905
2022-12-08T05:57:50.587Z,5.400000095
2022-12-08T05:58:51.299Z,5.300000191
2022-12-08T05:59:52.654Z,5.400000095
2022-12-08T06:00:53.453Z,5.5
2022-12-08T06:01:54.141Z,4.599999905
2022-12-08T06:02:55.545Z,4.800000191
2022-12-08T06:03:56.021Z,4.900000095
2022-12-08T06:04:57.520Z,4.599999905
2022-12-08T06:05:58.196Z,5.300000191
2022-12-08T06:06:58.870Z,4.699999809
2022-12-08T06:07:59.609Z,4.900000095
2022-12-08T06:09:00.714Z,5.5
2022-12-08T06:10:31.767Z,6.199999809
2022-12-08T06:11:32.523Z,5.300000191
2022-12-08T06:12:33.222Z,5.199999809
2022-12-08T06:13:33.974Z,5.400000095
2022-12-08T06:14:35.625Z,5
2022-12-08T06:15:36.262Z,5.599999905
2022-12-08T06:16:37.045Z,5.300000191
2022-12-08T06:17:37.596Z,5.199999809
2022-12-08T06:18:38.233Z,5.199999809
2022-12-08T06:19:38.835Z,5.300000191
2022-12-08T06:20:39.473Z,5.099999905
2022-12-08T06:21:40.265Z,4.800000191
2022-12-08T06:22:40.994Z,5.300000191
2022-12-08T06:23:41.605Z,5.199999809
2022-12-08T06:24:43.143Z,4.900000095
2022-12-08T06:25:43.777Z,5.199999809
2022-12-08T06:26:44.401Z,5.300000191
2022-12-08T06:27:45.060Z,5.300000191
2022-12-08T06:28:46.628Z,4.900000095
2022-12-08T06:29:47.305Z,4.800000191
2022-12-08T06:30:47.969Z,5.199999809
2022-12-08T06:31:48.744Z,5.199999809
2022-12-08T06:32:49.160Z,5.699999809
2022-12-08T06:33:49.796Z,5.300000191
2022-12-08T06:34:51.173Z,5.300000191
2022-12-08T06:35:51.926Z,6
2022-12-08T06:36:52.701Z,5.900000095
2022-12-08T06:37:53.252Z,6
2022-12-08T06:38:53.931Z,5.300000191
2022-12-08T06:39:54.610Z,5.900000095
2022-12-08T06:40:55.376Z,6.099999905
2022-12-08T06:41:56.053Z,5.699999809
2022-12-08T06:42:56.635Z,13.10000038
2022-12-08T06:43:57.306Z,13
2022-12-08T06:44:58.569Z,7.400000095
2022-12-08T06:45:59.376Z,8.199999809
2022-12-08T06:47:00.371Z,5.900000095
2022-12-08T06:48:31.326Z,6
2022-12-08T06:49:31.929Z,5
2022-12-08T06:50:32.624Z,5.199999809
2022-12-08T06:51:33.217Z,5.699999809
2022-12-08T06:52:37.717Z,5.400000095
2022-12-08T06:53:35.469Z,5.300000191
2022-12-08T06:54:36.679Z,5.300000191
2022-12-08T06:55:59.123Z,5.099999905
2022-12-08T06:56:37.974Z,5.300000191
2022-12-08T06:57:38.638Z,5
2022-12-08T06:58:39.216Z,5.300000191
2022-12-08T06:59:40.416Z,5
2022-12-08T07:00:41.971Z,5.400000095
2022-12-08T07:01:42.758Z,6.300000191
2022-12-08T07:02:43.390Z,5.699999809
2022-12-08T07:03:43.958Z,5.599999905
2022-12-08T07:04:45.187Z,6.699999809
2022-12-08T07:05:45.854Z,5.199999809
2022-12-08T07:06:46.537Z,4.599999905
2022-12-08T07:07:47.442Z,4.599999905
2022-12-08T07:08:47.899Z,5
2022-12-08T07:09:48.530Z,5.099999905
2022-12-08T07:10:49.163Z,5.599999905
2022-12-08T07:11:49.681Z,5
2022-12-08T07:12:50.405Z,5.599999905
2022-12-08T07:13:51.033Z,5.400000095
2022-12-08T07:14:52.440Z,5.300000191
2022-12-08T07:15:53.067Z,4.699999809
2022-12-08T07:16:53.645Z,4.699999809
2022-12-08T07:17:59.580Z,4.800000191
2022-12-08T07:18:54.968Z,4.699999809
2022-12-08T07:19:55.669Z,4.900000095
2022-12-08T07:20:56.286Z,5.099999905
2022-12-08T07:21:56.874Z,4.699999809
2022-12-08T07:22:57.573Z,5.199999809
2022-12-08T07:23:58.233Z,5.199999809
2022-12-08T07:24:59.661Z,6.099999905
2022-12-08T07:26:30.665Z,5.400000095
2022-12-08T07:27:31.364Z,5.300000191
2022-12-08T07:28:32.014Z,4.900000095
2022-12-08T07:29:33.150Z,5.400000095
2022-12-08T07:30:34.013Z,5
2022-12-08T07:31:34.658Z,5
2022-12-08T07:32:35.271Z,4.699999809
2022-12-08T07:33:36.007Z,4.900000095
2022-12-08T07:34:37.123Z,5
2022-12-08T07:35:37.814Z,5.199999809
2022-12-08T07:36:39.609Z,5.5
2022-12-08T07:37:40.340Z,5
2022-12-08T07:38:41.091Z,5
2022-12-08T07:39:41.735Z,5.400000095
2022-12-08T07:40:42.399Z,5.599999905
2022-12-08T07:41:43.087Z,4.900000095
2022-12-08T07:42:43.805Z,5.599999905
2022-12-08T07:43:44.639Z,5.099999905
2022-12-08T07:44:46.118Z,5.400000095
2022-12-08T07:45:46.862Z,5.699999809
2022-12-08T07:46:47.469Z,5.199999809
2022-12-08T07:47:48.083Z,5.300000191
2022-12-08T07:48:48.784Z,5.199999809
2022-12-08T07:49:50.206Z,5.599999905
2022-12-08T07:50:50.966Z,5.599999905
2022-12-08T07:51:51.508Z,4.800000191
2022-12-08T07:52:52.160Z,5.599999905
2022-12-08T07:53:54.092Z,5.099999905
2022-12-08T07:54:54.632Z,5.199999809
2022-12-08T07:55:55.248Z,4.699999809
2022-12-08T07:56:55.902Z,5.199999809
2022-12-08T07:57:56.430Z,6.900000095
2022-12-08T07:58:57.133Z,5.699999809
2022-12-08T07:59:58.660Z,6
2022-12-08T08:01:30.028Z,5.699999809
2022-12-08T08:02:30.559Z,5.900000095
2022-12-08T08:03:31.059Z,5.300000191
2022-12-08T08:04:31.787Z,5.300000191
2022-12-08T08:05:32.971Z,6.199999809
2022-12-08T08:06:33.510Z,5
2022-12-08T08:07:34.104Z,5.599999905
2022-12-08T08:08:34.753Z,5.800000191
2022-12-08T08:09:36.227Z,5.800000191
2022-12-08T08:10:36.668Z,4.800000191
2022-12-08T08:11:37.262Z,5.699999809
2022-12-08T08:12:37.883Z,5.099999905
2022-12-08T08:13:38.411Z,4.599999905
2022-12-08T08:14:39.149Z,5.400000095
2022-12-08T08:15:40.491Z,5.099999905
2022-12-08T08:16:41.151Z,4.800000191
2022-12-08T08:17:41.694Z,6.599999905
2022-12-08T08:18:42.118Z,5.199999809
2022-12-08T08:19:42.850Z,4.300000191
2022-12-08T08:20:43.227Z,4.900000095
2022-12-08T08:21:45.948Z,5
2022-12-08T08:22:44.463Z,6.099999905
2022-12-08T08:23:45.030Z,5.300000191
2022-12-08T08:24:45.847Z,5.599999905
2022-12-08T08:25:46.897Z,5.099999905
2022-12-08T08:26:47.510Z,5.599999905
2022-12-08T08:27:48.107Z,5
2022-12-08T08:28:48.662Z,5.900000095
2022-12-08T08:29:49.302Z,6.300000191
2022-12-08T08:30:50.614Z,5.599999905
2022-12-08T08:31:50.962Z,5.300000191
2022-12-08T08:32:51.497Z,5.5
2022-12-08T08:33:52.056Z,5.599999905
2022-12-08T08:34:52.895Z,5.400000095
2022-12-08T08:35:54.125Z,6.300000191
2022-12-08T08:36:54.694Z,5.199999809
2022-12-08T08:37:55.234Z,5.300000191
2022-12-08T08:38:55.858Z,5
2022-12-08T08:39:56.470Z,5.5
2022-12-08T08:40:56.932Z,5.400000095
2022-12-08T08:41:57.522Z,5.199999809
2022-12-08T08:42:58.123Z,5.099999905
2022-12-08T08:44:30.139Z,5.800000191
2022-12-08T08:45:31.611Z,6.800000191
2022-12-08T08:46:32.350Z,5.300000191
2022-12-08T08:47:32.888Z,5.599999905
2022-12-08T08:48:33.578Z,6.099999905
2022-12-08T08:49:34.285Z,5.5
2022-12-08T08:50:37.587Z,5.599999905
2022-12-08T08:51:35.601Z,5.199999809
2022-12-08T08:52:36.150Z,5.699999809
2022-12-08T08:53:36.744Z,5.5
2022-12-08T08:54:37.292Z,5.699999809
2022-12-08T08:55:38.685Z,5.300000191
2022-12-08T08:56:39.352Z,5.199999809
2022-12-08T08:57:40.018Z,5.599999905
2022-12-08T08:58:40.585Z,5.599999905
2022-12-08T08:59:41.205Z,5.900000095
2022-12-08T09:00:41.826Z,5.400000095
2022-12-08T09:01:42.472Z,5.099999905
2022-12-08T09:02:43.026Z,5.099999905
2022-12-08T09:03:43.691Z,5.699999809
2022-12-08T09:04:44.443Z,5.300000191
2022-12-08T09:05:45.040Z,5.300000191
2022-12-08T09:06:45.592Z,5.300000191
2022-12-08T09:07:46.219Z,5.5
2022-12-08T09:08:46.769Z,5.300000191
2022-12-08T09:09:47.307Z,5.199999809
2022-12-08T09:10:47.996Z,5.800000191
2022-12-08T09:11:48.597Z,5.199999809
2022-12-08T09:12:49.202Z,5.699999809
2022-12-08T09:13:49.802Z,5.699999809
2022-12-08T09:14:50.373Z,6.199999809
2022-12-08T09:15:52.129Z,5.699999809
2022-12-08T09:16:52.556Z,5.699999809
2022-12-08T09:17:53.124Z,5.800000191
2022-12-08T09:18:53.696Z,5.099999905
2022-12-08T09:19:54.273Z,6.599999905
2022-12-08T09:20:54.874Z,5.699999809
2022-12-08T09:21:56.131Z,6.199999809
2022-12-08T09:22:56.816Z,5.300000191
2022-12-08T09:23:57.431Z,5.599999905
2022-12-08T09:24:58.515Z,5.699999809
2022-12-08T09:26:30.357Z,6
2022-12-08T09:27:30.947Z,4.900000095
2022-12-08T09:28:31.621Z,5.5
2022-12-08T09:29:36.016Z,6
2022-12-08T09:30:32.806Z,5.900000095
2022-12-08T09:31:34.125Z,6.400000095
2022-12-08T09:32:34.587Z,5.800000191
2022-12-08T09:33:35.189Z,5.900000095
2022-12-08T09:34:35.744Z,5.599999905
2022-12-08T09:35:37.135Z,4.900000095
2022-12-08T09:36:37.755Z,5.300000191
2022-12-08T09:37:38.320Z,5.5
2022-12-08T09:38:38.874Z,5.099999905
2022-12-08T09:39:39.459Z,5.300000191
2022-12-08T09:40:40.148Z,6.099999905
2022-12-08T09:41:46.385Z,6.300000191
2022-12-08T09:42:41.315Z,5.699999809
2022-12-08T09:43:41.930Z,6.199999809
2022-12-08T09:44:42.490Z,5.400000095
2022-12-08T09:45:43.936Z,5.400000095
2022-12-08T09:46:44.544Z,5.400000095
2022-12-08T09:47:45.075Z,5.800000191
2022-12-08T09:48:45.607Z,5.599999905
2022-12-08T09:49:47.104Z,5.099999905
2022-12-08T09:50:47.718Z,5.800000191
2022-12-08T09:51:48.260Z,5.599999905
2022-12-08T09:52:48.772Z,5.5
2022-12-08T09:53:49.356Z,5.400000095
2022-12-08T09:54:50.629Z,6
2022-12-08T09:55:52.109Z,5.400000095
2022-12-08T09:56:53.001Z,5.5
2022-12-08T09:57:56.476Z,6
2022-12-08T09:58:54.193Z,5.900000095
2022-12-08T09:59:54.772Z,5.300000191
2022-12-08T10:00:56.087Z,5.599999905
2022-12-08T10:01:56.770Z,6.5
2022-12-08T10:02:57.307Z,5.800000191
2022-12-08T10:04:28.513Z,6.099999905
2022-12-08T10:05:29.055Z,6.199999809
2022-12-08T10:06:30.375Z,5.5
2022-12-08T10:07:30.987Z,6.099999905
2022-12-08T10:08:31.731Z,6.099999905
2022-12-08T10:09:32.141Z,5.900000095
2022-12-08T10:10:32.674Z,6.599999905
2022-12-08T10:11:33.197Z,7
2022-12-08T10:12:34.564Z,6.099999905
2022-12-08T10:13:34.957Z,6
2022-12-08T10:14:35.570Z,6.699999809
2022-12-08T10:15:36.884Z,6.400000095
2022-12-08T10:16:37.491Z,6
2022-12-08T10:17:38.852Z,6.5
2022-12-08T10:18:39.390Z,6.699999809
2022-12-08T10:19:40.057Z,5.699999809
2022-12-08T10:20:40.654Z,6
2022-12-08T10:21:41.189Z,6.400000095
2022-12-08T10:22:44.963Z,5.199999809
2022-12-08T10:23:42.910Z,6.5
2022-12-08T10:24:43.560Z,6.099999905
2022-12-08T10:25:44.155Z,6.900000095
2022-12-08T10:26:45.382Z,6.900000095
2022-12-08T10:27:45.920Z,6
2022-12-08T10:28:46.499Z,6.300000191
2022-12-08T10:29:47.074Z,6.300000191
2022-12-08T10:30:47.646Z,7.900000095
2022-12-08T10:31:49.047Z,6.400000095
2022-12-08T10:32:49.568Z,6.699999809
2022-12-08T10:33:50.098Z,6.199999809
2022-12-08T10:34:56.232Z,6.5
2022-12-08T10:35:51.300Z,7
2022-12-08T10:36:52.636Z,7.400000095
2022-12-08T10:37:53.257Z,7.199999809
2022-12-08T10:38:53.773Z,7.5
2022-12-08T10:39:55.112Z,6.599999905
2022-12-08T10:40:55.687Z,7.099999905
2022-12-08T10:41:56.344Z,6.699999809
2022-12-08T10:42:56.967Z,6.900000095
2022-12-08T10:44:27.974Z,6.800000191
2022-12-08T10:45:28.455Z,7
2022-12-08T10:46:29.702Z,7.199999809
2022-12-08T10:47:30.359Z,7.199999809
2022-12-08T10:48:31.021Z,7.099999905
2022-12-08T10:49:31.514Z,6.900000095
2022-12-08T10:50:32.062Z,7.099999905
2022-12-08T10:51:33.356Z,7.400000095
2022-12-08T10:52:34.087Z,6.599999905
2022-12-08T10:53:34.711Z,6.599999905
2022-12-08T10:54:35.361Z,8.100000381
2022-12-08T10:55:35.868Z,8
2022-12-08T10:56:37.360Z,8.199999809
2022-12-08T10:57:37.974Z,8.100000381
2022-12-08T10:58:38.644Z,7.199999809
2022-12-08T10:59:39.257Z,6.699999809
2022-12-08T11:00:39.942Z,7.900000095
2022-12-08T11:01:40.494Z,7.599999905
2022-12-08T11:02:41.940Z,7.400000095
2022-12-08T11:03:42.549Z,7
2022-12-08T11:04:43.111Z,7.5
2022-12-08T11:05:43.653Z,10.19999981
2022-12-08T11:06:44.934Z,8.899999619
2022-12-08T11:07:45.535Z,8.199999809
2022-12-08T11:08:46.587Z,8.199999809
2022-12-08T11:09:46.634Z,8.100000381
2022-12-08T11:10:47.149Z,7
2022-12-08T11:11:47.714Z,7.699999809
2022-12-08T11:12:48.244Z,8.600000381
2022-12-08T11:13:48.823Z,8.800000191
2022-12-08T11:14:49.397Z,7.699999809
2022-12-08T11:15:49.948Z,8.399999619
2022-12-08T11:16:51.494Z,8.5
2022-12-08T11:17:57.393Z,7.900000095
2022-12-08T11:18:52.546Z,8.399999619
2022-12-08T11:19:53.087Z,7.800000191
2022-12-08T11:20:53.660Z,8.699999809
2022-12-08T11:21:54.244Z,8.100000381
2022-12-08T11:22:55.600Z,8.5
2022-12-08T11:23:56.224Z,7.800000191
2022-12-08T11:24:57.189Z,8.300000191
2022-12-08T11:26:28.603Z,8
2022-12-08T11:27:29.211Z,7.900000095
2022-12-08T11:28:29.845Z,7.800000191
2022-12-08T11:29:30.382Z,7.5
2022-12-08T11:30:30.960Z,7.199999809
2022-12-08T11:31:32.190Z,7.699999809
2022-12-08T11:32:32.767Z,8.800000191
2022-12-08T11:33:33.306Z,9.600000381
2022-12-08T11:34:34.003Z,9.100000381
2022-12-08T11:35:34.505Z,9.100000381